Create Custom Reports and Graphics: Custom Report

Bell Hill-West

Current Conditions

9/28/21 12:45 PM (-07:00)
Updated Every 15 Minutes
Rain 24Hr 0.02 In
Temp 67.2 °F   1.8
RH 37 %   25
Dew Pt 40.0 °F   15.5
Wet Bulb 52.4 °F   8.8
Wind Dir WSW | 245 °
Wind Spd 6.9 mph   0.8
Wind Gust 12.1 mph   2.7
Solar Rad 846 W/m2   268
BatVolt 13.2 V   0.0

Today & Yesterday

Bell Hill-West

9/28/21 12:45 PM (-07:00)
Updated Every 15 Minutes
Daily Max Temp 67.5 °F   2.2
Time of Max Temp 1239
Daily Min Temp 43.1 °F   3.9
Time of Min Temp 0740
Daily Max Wind 12.1 mph   2.7
Time of Max Wind 1237
Max Wind Dir WSW | 256 °
Daily Rain 0.00 In
Daily ETo 0.047 in   0.005
Yesterday's Max Temp 70.1 °F
Yesterday’s Min Temp 46.7 °F
Yesterday's Max Wind 14.8 mph
Yesterday's Rainfall 0.02 In
Yesterday's ETo 0.09 In

Last 48 Hours

Bell Hill-West

Hourly Data | America/Los_Angeles
as of 9/28/21 12:50 PM PDT
Date & Time Temp (°F) WindChill (°F) RH (%) Dew Pt (°F) Wet Bulb (°F) Wind Dir (°) Wind Spd (mph) Wind Gust (mph) Wind Gst Dir (°) Solar Rad (W/m2) Latest Rain (In) Daily Rain (In) Daily Min Temp (°F) Daily Max Temp (°F) Daily ETo (in)
9/28/21 - 1200 63.1 - 38 37.3 49.8 NE | 39 2.6 8.8 NNE | 26 782 0.00 0.00 43.1 65.5 0.047
9/28/21 - 1100 59.0 - 49 40.0 49.4 NNE | 23 1.9 5.4 N | 4 657 0.00 0.00 43.1 60.9 0.029
9/28/21 - 1000 56.2 - 58 41.4 48.9 SE | 139 1.3 4.4 NE | 39 487 0.00 0.00 43.1 57.8 0.014
9/28/21 - 0900 49.0 - 80 43.1 46.5 S | 187 2.8 5.4 SSW | 196 296 0.00 0.00 43.1 53.0 0.005
9/28/21 - 0800 44.1 - 92 42.0 43.4 S | 177 2.0 5.1 S | 184 65 0.00 0.00 43.1 50.3 0.000
9/28/21 - 0700 44.7 - 93 42.8 44.2 S | 181 1.8 5.1 S | 169 0 0.00 0.00 44.2 50.3 0.000
9/28/21 - 0600 46.4 - 89 43.2 45.2 SSW | 198 0.8 4.1 ESE | 109 0 0.00 0.00 44.6 50.3 0.000
9/28/21 - 0500 48.0 - 86 43.9 46.4 SSE | 149 1.1 6.8 NE | 50 0 0.00 0.00 44.6 50.3 0.000
9/28/21 - 0400 49.3 - 84 44.5 47.4 S | 187 2.3 8.4 WSW | 237 0 0.00 0.00 44.6 50.3 0.000
9/28/21 - 0300 46.1 44.9 94 44.6 45.8 SSW | 207 3.4 8.8 WSW | 255 0 0.00 0.00 44.6 48.8 0.000
9/28/21 - 0200 46.2 - 92 43.9 45.5 S | 187 1.6 4.4 S | 182 0 0.00 0.00 44.8 47.1 0.000
9/28/21 - 0100 48.4 - 87 44.7 47.0 SW | 224 0.6 4.1 W | 272 0 0.00 0.02 46.7 70.1 0.090
9/28/21 - 0000 50.5 - 84 46.0 48.7 SW | 235 1.0 6.8 W | 280 0 0.00 0.02 47.0 70.1 0.090
9/27/21 - 2300 52.4 - 83 47.4 50.4 WSW | 251 3.6 7.8 WSW | 249 0 0.00 0.02 47.0 70.1 0.090
9/27/21 - 2200 53.4 - 85 48.8 51.6 WSW | 249 3.2 7.4 W | 274 0 0.00 0.02 47.0 70.1 0.089
9/27/21 - 2100 54.4 - 84 49.8 52.7 WSW | 246 3.3 8.1 W | 263 0 0.00 0.02 47.0 70.1 0.089
9/27/21 - 2000 56.0 - 85 51.5 54.3 WSW | 239 3.0 6.8 WSW | 255 0 0.00 0.02 47.0 70.1 0.089
9/27/21 - 1900 58.1 - 86 53.9 56.8 W | 270 4.6 12.1 W | 274 12 0.00 0.02 47.0 70.1 0.088
9/27/21 - 1800 61.4 - 90 58.4 61.0 WSW | 255 5.0 13.5 SW | 229 147 0.01 0.02 47.0 70.1 0.088
9/27/21 - 1700 62.7 - 89 59.3 62.2 SW | 215 4.6 9.5 SSW | 208 142 0.01 0.01 47.0 70.1 0.085
9/27/21 - 1600 64.7 - 80 58.3 62.0 SW | 219 5.1 10.1 SW | 228 124 0.00 0.00 47.0 70.1 0.081
9/27/21 - 1500 67.2 - 70 57.1 61.9 SSW | 212 7.8 14.8 SSW | 199 296 0.00 0.00 47.0 70.1 0.077
9/27/21 - 1400 68.6 - 64 55.8 61.4 SSW | 211 6.4 13.8 SSW | 202 392 0.00 0.00 47.0 70.1 0.068
9/27/21 - 1300 68.7 - 63 55.5 61.2 SW | 228 7.2 14.8 W | 279 543 0.00 0.00 47.0 70.1 0.057
9/27/21 - 1200 67.9 - 62 54.3 60.2 WSW | 245 5.1 11.8 W | 273 629 0.00 0.00 47.0 69.8 0.042
9/27/21 - 1100 64.9 - 69 54.3 59.3 SW | 235 6.9 13.5 SSW | 213 652 0.00 0.00 47.0 67.2 0.027
9/27/21 - 1000 62.7 - 75 54.7 58.9 SW | 234 5.8 11.8 SW | 230 385 0.00 0.00 47.0 64.4 0.012
9/27/21 - 0900 60.8 - 79 54.4 58.0 SW | 225 3.5 9.1 SW | 214 208 0.00 0.00 47.0 61.9 0.004
9/27/21 - 0800 53.0 - 95 51.7 53.2 SSW | 195 2.3 5.8 SSW | 202 60 0.00 0.00 47.0 58.5 0.000
9/27/21 - 0700 53.2 - 90 50.3 52.4 SW | 233 0.3 3.1 WSW | 253 0 0.00 0.00 47.0 56.9 0.000
9/27/21 - 0600 56.0 - 91 53.5 55.6 SSW | 204 1.9 4.4 S | 190 0 0.00 0.00 47.0 56.9 0.000
9/27/21 - 0500 54.0 - 94 52.4 54.1 WSW | 250 1.4 5.8 W | 267 0 0.00 0.00 47.0 55.1 0.000
9/27/21 - 0400 50.4 - 87 46.7 49.1 S | 178 0.4 3.1 S | 169 0 0.00 0.00 47.0 54.1 0.000
9/27/21 - 0300 50.4 - 85 46.1 48.8 SSW | 198 0.9 5.8 W | 270 0 0.00 0.00 47.0 54.1 0.000
9/27/21 - 0200 48.0 - 78 41.6 45.2 S | 190 0.8 3.8 SW | 231 0 0.00 0.00 47.2 48.8 0.000
9/27/21 - 0100 49.7 - 77 42.8 46.6 SSW | 206 0.3 2.7 WSW | 240 0 0.00 0.00 43.7 80.4 0.180
9/27/21 - 0000 54.6 - 68 44.2 49.6 S | 177 0.3 5.8 SW | 231 0 0.00 0.00 43.7 80.4 0.180
9/26/21 - 2300 56.3 - 66 45.1 50.8 SW | 215 1.1 4.4 SSE | 156 0 0.00 0.00 43.7 80.4 0.180
9/26/21 - 2200 58.6 - 66 47.4 52.9 SSW | 202 1.5 7.8 SSW | 208 0 0.00 0.00 43.7 80.4 0.180
9/26/21 - 2100 61.6 - 60 47.4 54.1 SW | 232 5.2 12.5 SSW | 199 0 0.00 0.00 43.7 80.4 0.180
9/26/21 - 2000 65.1 - 50 45.8 54.4 W | 268 2.4 7.8 WSW | 258 1 0.00 0.00 43.7 80.4 0.179
9/26/21 - 1900 71.2 - 41 46.2 56.5 WSW | 238 4.8 11.1 SW | 225 68 0.00 0.00 43.7 80.4 0.179
9/26/21 - 1800 76.1 - 35 46.8 58.1 SW | 224 7.3 13.8 SW | 228 272 0.00 0.00 43.7 80.4 0.176
9/26/21 - 1700 78.8 - 30 44.5 57.7 SW | 233 6.7 15.2 S | 190 482 0.00 0.00 43.7 80.4 0.165
9/26/21 - 1600 79.6 - 24 39.1 55.7 WSW | 245 5.9 13.2 SSW | 208 666 0.00 0.00 43.7 80.4 0.149
9/26/21 - 1500 78.4 - 26 40.6 56.0 WSW | 244 6.8 14.8 WSW | 237 788 0.00 0.00 43.7 79.5 0.128
9/26/21 - 1400 77.1 - 31 43.9 57.0 WSW | 251 8.9 16.5 SW | 231 861 0.00 0.00 43.7 78.2 0.104
9/26/21 - 1300 77.2 - 30 43.8 57.0 WSW | 253 7.8 15.8 SW | 231 865 0.00 0.00 43.7 78.2 0.078
9/26/21 - 1200 74.3 - 36 45.6 57.1 NW | 315 3.5 11.1 WSW | 258 783 0.00 0.00 43.7 78.0 0.051
Max 79.6 - 95 59.3 62.2 - 8.9 16.5 - 865 0.01 0.02 47.2 80.4 0.180
Avg 59.1 - 70 47.7 53.1 - 3.4 8.7 - 218 0.00 - - - -
Min 44.1 - 24 37.3 43.4 - 0.3 2.7 - 0 0.00 0.00 43.1 47.1 0.000
Total - - - - - - - - - - 0.02 - - - -

Last 30 Days

Bell Hill-West

Daily Data | America/Los_Angeles
as of 9/28/21 12:50 PM PDT
Date Daily Max Temp (°F) Time of Max Temp Daily Min Temp (°F) Time of Min Temp Daily Rain (In) Monthly Rain (In) Seasonal Rainfall (In) Wind Spd (mph) Daily Max Wind (mph) Time of Max Wind Max Wind Dir (°) Daily ETo (in) 7 Day ETo (in) Daily Solar Rad (Cal/cm2) Dew Pt (°F) Max RH (%) Min RH (%) Hrs 70-85F (hrs) Hrs > 95F (hrs) Powdery Mildew Stress (pts) GDDs (DL) GDDs (Mx/Mn) Seas GDDs (DL) Seas GDDs (Smpl) Hrs <= 32F (hrs) Hrs <= 28F (hrs) Chilling <=45F (hrs) Chill Hrs 32-45F (hrs) Utah Chilling (Units) Degree Hrs (hrs) Max 1 Min Rain (In) Max 1 Min Rain Time Max 15 Min Rain (In) Max 15 Min Precip Time Max 60 Min Rain (In) Max 60 Min Rain Time Bat Volt Min Day (V)
9/27/21 70.1 1253 46.7 0059 0.02 0.20 0.20 3.5 14.8 1230 W | 279 0.090 1.25 309 51.9 98 58 0.02 0.00 30 8.0 8.4 3,441 3,279 0.0 0.0 0.0 0.0 2.0 12.4 0.01 1718 0.01 1732 0.01 1817 12.3
9/26/21 80.4 1556 43.7 0622 0.00 0.18 0.18 3.2 16.5 1319 SW | 231 0.180 1.34 538 44.2 88 20 7.75 0.00 40 12.3 12.1 3,433 3,271 0.0 0.0 1.8 1.8 0.5 95.2 - - - - - - 12.2
9/25/21 85.9 1233 47.6 0658 0.00 0.18 0.18 3.8 16.5 1249 SSW | 204 0.195 1.31 535 40.7 74 17 9.15 0.00 20 16.5 16.8 3,421 3,259 0.0 0.0 0.0 0.0 0.0 160.8 - - - - - - 12.3
9/24/21 94.8 1522 50.9 0642 0.00 0.18 0.18 3.1 16.8 1724 S | 190 0.196 1.21 522 39.0 66 11 2.64 0.00 0 20.7 22.8 3,405 3,242 0.0 0.0 0.0 0.0 0.0 234.8 - - - - - - 12.2
9/23/21 93.6 1707 48.1 0703 0.00 0.18 0.18 2.4 11.5 1310 N | 1 0.176 1.21 530 38.3 67 10 2.47 0.00 0 20.0 20.9 3,384 3,219 0.0 0.0 0.0 0.0 0.0 230.7 - - - - - - 12.2
9/22/21 90.6 1557 50.6 0722 0.00 0.18 0.18 3.3 14.8 1223 SSW | 211 0.202 1.23 544 36.4 64 11 2.66 0.00 0 19.7 20.6 3,364 3,198 0.0 0.0 0.0 0.0 0.0 215.2 - - - - - - 12.2
9/21/21 93.7 1601 45.7 0637 0.00 0.18 0.18 3.4 16.2 1714 S | 186 0.212 1.24 544 34.7 63 11 2.27 0.00 0 20.2 19.7 3,344 3,178 0.0 0.0 0.0 0.0 0.0 241.1 - - - - - - 12.2
9/20/21 90.6 1620 43.2 0712 0.00 0.18 0.18 2.8 11.1 1535 ESE | 114 0.185 1.24 569 35.5 96 7 2.89 0.00 0 15.8 16.9 3,324 3,158 0.0 0.0 2.3 2.3 0.0 166.9 - - - - - - 12.3
9/19/21 74.3 1632 47.9 0657 0.00 0.18 0.18 3.1 18.5 1251 W | 274 0.149 1.25 510 49.0 100 33 5.09 0.00 0 10.8 11.1 3,308 3,141 0.0 0.0 0.0 0.0 1.0 45.3 - - - - - - 12.2
9/18/21 67.6 1241 52.9 0456 0.01 0.18 0.18 4.6 18.2 1236 SSW | 206 0.090 1.32 313 54.6 95 65 0.00 0.00 0 10.2 10.2 3,297 3,130 0.0 0.0 0.0 0.0 0.0 2.8 0.01 1924 0.01 1938 0.01 2023 12.2
9/17/21 86.3 1424 49.2 0708 0.00 0.17 0.17 3.7 18.8 1803 S | 179 0.200 1.43 559 47.4 87 22 4.12 0.00 10 16.1 17.8 3,287 3,120 0.0 0.0 0.0 0.0 0.0 143.9 - - - - - - 12.2
9/16/21 85.3 1425 49.9 0649 0.00 0.17 0.17 3.2 14.5 1749 SW | 228 0.195 1.44 556 46.7 81 18 10.28 0.00 20 17.1 17.6 3,271 3,102 0.0 0.0 0.0 0.0 0.0 162.9 - - - - - - 12.2
9/15/21 91.0 1411 51.7 0703 0.00 0.17 0.17 3.6 15.5 1736 SW | 223 0.207 1.42 548 42.9 69 14 3.34 0.00 0 20.0 21.3 3,254 3,085 0.0 0.0 0.0 0.0 0.0 206.8 - - - - - - 12.3
9/14/21 97.0 1515 50.8 0623 0.00 0.17 0.17 3.2 16.8 1623 SSW | 206 0.209 1.44 552 38.8 57 10 2.50 1.84 0 22.0 23.9 3,234 3,063 0.0 0.0 0.0 0.0 -13.0 255.9 - - - - - - 12.3
9/13/21 94.2 1729 50.9 0652 0.00 0.17 0.17 3.0 12.5 1445 NNE | 22 0.203 1.48 571 40.8 70 12 2.97 0.00 0 21.2 22.6 3,212 3,039 0.0 0.0 0.0 0.0 -13.0 237.0 - - - - - - 12.3
9/12/21 93.5 1606 53.1 0701 0.00 0.17 0.17 3.1 24.2 1505 W | 275 0.213 1.52 571 42.2 68 13 3.14 0.00 0 22.2 23.3 3,191 3,017 0.0 0.0 0.0 0.0 0.0 245.2 - - - - - - 12.2
9/11/21 90.3 1625 51.3 0712 0.00 0.17 0.17 3.0 15.2 1708 W | 274 0.205 1.53 588 47.0 88 16 3.25 0.00 0 19.6 20.8 3,169 2,994 0.0 0.0 0.0 0.0 0.0 198.7 - - - - - - 12.3
9/10/21 86.2 1603 57.6 0059 0.13 0.17 0.17 2.9 14.5 1345 SSW | 198 0.209 1.55 600 53.4 99 22 5.18 0.00 10 20.3 21.9 3,149 2,973 0.0 0.0 0.0 0.0 0.0 169.2 0.02 0104 0.04 0151 0.08 0203 12.2
9/9/21 95.2 1319 60.1 0645 0.04 0.04 0.04 3.2 15.2 1249 WNW | 288 0.174 1.56 355 42.2 85 9 6.03 0.06 20 25.4 27.7 3,129 2,951 0.0 0.0 0.0 0.0 -20.5 263.3 0.01 2321 0.02 2254 0.03 2339 12.3
9/8/21 99.3 1501 60.0 0633 0.00 0.00 0.00 3.1 16.2 1439 WNW | 282 0.230 1.59 550 42.1 56 11 3.51 4.16 0 28.8 29.7 3,103 2,923 0.0 0.0 0.0 0.0 -22.0 338.2 - - - - - - 12.2
9/7/21 97.4 1419 54.2 0613 0.00 0.00 0.00 3.8 18.2 1617 WSW | 242 0.243 1.58 587 35.4 49 7 3.70 2.88 0 25.6 25.8 3,075 2,894 0.0 0.0 0.0 0.0 -17.0 311.0 - - - - - - 12.2
9/6/21 96.7 1446 48.0 0638 0.00 0.00 0.00 3.9 17.8 1447 S | 172 0.249 1.58 609 32.3 52 8 2.38 3.57 10 22.6 22.4 3,049 2,868 0.0 0.0 0.0 0.0 -12.5 278.2 - - - - - - 12.2
9/5/21 96.7 1637 48.5 0703 0.00 0.00 0.00 3.2 12.5 1844 W | 261 0.224 1.60 616 33.4 61 6 2.97 1.48 20 21.2 22.6 3,026 2,845 0.0 0.0 0.0 0.0 0.0 255.5 - - - - - - 12.3
9/4/21 93.7 1616 48.5 0632 0.00 0.00 0.00 3.2 15.8 1703 S | 175 0.225 1.61 618 36.5 68 6 2.79 0.00 30 20.0 21.1 3,005 2,823 0.0 0.0 0.0 0.0 0.0 231.7 - - - - - - 12.3
9/3/21 89.4 1625 47.1 0651 0.00 0.00 0.00 3.3 15.5 1735 S | 186 0.220 1.60 622 41.6 86 8 3.43 0.00 40 18.4 18.3 2,985 2,802 0.0 0.0 0.0 0.0 0.0 196.7 - - - - - - 12.3
9/2/21 84.3 1408 49.5 0636 0.00 0.00 0.00 3.3 14.8 1736 S | 179 0.203 1.61 593 46.6 82 20 9.98 0.00 50 16.2 16.9 2,967 2,783 0.0 0.0 0.0 0.0 0.0 144.9 - - - - - - 12.3
9/1/21 82.4 1245 46.7 0657 0.00 0.00 0.00 4.2 17.2 1514 S | 186 0.220 1.64 625 41.0 70 25 9.74 0.00 30 15.1 14.6 2,950 2,766 0.0 0.0 0.0 0.0 0.0 128.5 - - - - - - 12.3
8/31/21 92.2 1355 48.4 0651 0.00 0.00 0.00 3.6 16.5 1355 WSW | 249 0.246 1.66 648 35.1 60 10 3.13 0.00 10 20.3 20.3 2,935 2,752 0.0 0.0 0.0 0.0 0.0 228.8 - - - - - - 12.2
8/30/21 99.1 1453 52.7 0635 0.00 0.00 0.00 3.7 14.5 1621 WSW | 258 0.262 1.65 651 34.7 50 6 2.77 4.60 20 25.2 25.9 2,915 2,732 0.0 0.0 0.0 0.0 0.0 315.7 - - - - - - 12.3
8/29/21 100.0 1543 55.6 0643 0.00 0.00 0.00 3.3 15.2 1633 W | 260 0.237 1.62 600 37.4 53 9 2.21 4.92 30 26.6 27.8 2,890 2,706 0.0 0.0 0.0 0.0 -16.5 323.6 - - - - - - 12.3
Max 100.0 - 60.1 - 0.13 0.20 - 4.6 24.2 - - 0.262 - 651 54.6 100 65 10.28 4.92 - 28.8 29.7 - - 0.0 0.0 2.3 2.3 2.0 338.2 0.02 - 0.04 - 0.08 - 12.3
Avg - - - - - 0.11 - 3.4 - - - - - - 41.4 - - 4.08 0.78 - 19.3 20.1 - - 0.0 0.0 0.1 0.1 -3.7 - - - - - - - -
Min 67.6 - 43.2 - 0.00 0.00 - 2.4 11.1 - - 0.090 - 309 32.3 49 6 0.00 0.00 - 8.0 8.4 - - 0.0 0.0 0.0 0.0 -22.0 2.8 0.01 - 0.01 - 0.01 - 12.2
Total - - - - - - - - - - - - - - - - - 122.38 23.52 - 578.3 601.5 - - 0.0 0.0 4.0 4.0 -111.0 - - - - - - - -

Bell Hill-West Climate Summary

Current Yeaer

Current Year | Showing 1/1/21 - 9/27/21
as of 9/28/21 12:50 PM PDT
Temperature (°F) Precip (in) Days
Month Days Avg Max Avg Min Max Max Min Min Total Daily Min Temp < 28 Daily Min Temp < 32 Daily Max Temp > 90 Daily Max Temp > 100 Daily Rain > 0.01 Daily Rain > 0.1
Jan 2021 31 56.2 33.9 74.9 20.1 3.55 5 12 0 0 13 5
Feb 2021 28 60.7 32.6 72.9 26.7 1.79 3 15 0 0 10 5
Mar 2021 31 61 32.2 77.4 26.6 1.87 2 17 0 0 6 5
Apr 2021 30 73 36.9 86.1 31.5 0.15 0 2 0 0 2 1
May 2021 31 80.7 44.1 101 33.8 0.01 0 0 2 1 0 0
Jun 2021 30 88.7 52.3 104.7 37.1 0 0 0 14 5 0 0
Jul 2021 31 96.4 57.5 105.9 51 0 0 0 29 7 0 0
Aug 2021 31 94.2 54.8 106.1 46.2 0 0 0 23 4 0 0
Sep 2021 27 88.9 50.2 99.3 43.2 0.2 0 0 16 0 3 1
Total 270 - - - - 7.57 10 46 84 17 34 17
Average 30 77.8 43.8 - - 0.84 1.1 5.1 9.3 1.9 3.8 1.9
Maximum 31 96.4 57.5 106.1 - 3.55 5 17 29 7 13 5
Minimum 27 56.2 32.2 - 20.1 0 0 0 0 0 0 0

Bell Hill-West Climate Summary

Last Year

Last Year | Showing 1/1/20 - 12/31/20
as of 9/28/21 12:50 PM PDT
Temperature (°F) Precip (in) Days
Month Days Avg Max Avg Min Max Max Min Min Total Daily Min Temp < 28 Daily Min Temp < 32 Daily Max Temp > 90 Daily Max Temp > 100 Daily Rain > 0.01 Daily Rain > 0.1
Jan 2020 31 55 34.1 69.6 25.8 2.38 3 13 0 0 13 6
Feb 2020 29 66.1 30.9 76.7 23.5 0 4 17 0 0 0 0
Mar 2020 31 59.8 34 80.6 26.6 1.44 2 11 0 0 9 4
Apr 2020 30 70.4 41.2 85.7 27.8 0.84 1 4 0 0 4 3
May 2020 31 76.6 45 95.7 32.9 1.22 0 0 5 0 6 4
Jun 2020 30 85.9 51.7 102.7 36.9 0 0 0 12 1 0 0
Jul 2020 31 92.7 54.5 98.2 45.7 0 0 0 25 0 0 0
Aug 2020 31 93.8 57.2 102.3 49.2 0.12 0 0 27 3 2 0
Sep 2020 30 89.3 50.8 107.8 42.2 0 0 0 12 3 0 0
Oct 2020 31 84.9 43.2 96.4 34.6 0 0 0 11 0 0 0
Nov 2020 30 63.9 31.4 84.5 21.4 0.61 11 18 0 0 3 2
Dec 2020 31 58.7 30.3 73.3 23.1 2.66 13 23 0 0 8 6
Total 366 - - - - 9.27 34 86 92 7 45 25
Average 30.5 74.7 42 - - 0.77 2.8 7.2 7.7 0.6 3.8 2.1
Maximum 31 93.8 57.2 107.8 - 2.66 13 23 27 3 13 6
Minimum 29 55 30.3 - 21.4 0 0 0 0 0 0 0
Calm: 0.0%
Calm: 0.0%